Racecast

Youssif Jomaa

Temperance Bedford (MI) · 9 · SECMI D1MONROE · Compare head to head

Athlete rating
Races 49
Seasons 4 2023 — 2026
Speed rating — all races

Track & Field

TF speed rating

2026 TF

Temperance Bedford (MI) · Grade 9

Date Meet Event Result Place Rating Difficulty PR/SR Flags
2026-05-07 SEC-HS Red Championship (EQ Approved) 200m 24.12 15th · 2nd on team -0.024
2026-05-01 2026 Saline Golden Triangle (EQ Approved) 400m 54.92 24th · 2nd on team -0.033
2026-05-01 2026 Saline Golden Triangle (EQ Approved) 100m 11.91 39th · 1st on team -0.033 SR
2026-04-28 SEC-HS: Bedford @ Monroe 200m 24.11 3rd · 2nd on team -0.022
2026-04-28 SEC-HS: Bedford @ Monroe 100m 12.01 6th · 3rd on team -0.022
2026-04-20 SEC-HS: Bedford @ Pioneer 100m 11.99 8th · 6th on team -0.017 SR
2026-04-14 SEC-HS: Huron & Saline at Bedford 200m 23.88 12th · 3rd on team -0.026 SR
2026-04-07 SEC-HS: Bedford & Dexter @ Skyline 200m 25.02 8th · 2nd on team -0.021
2026-03-26 Lincoln Indoor Invite 400m 54.25 11th · 3rd on team -0.029 ★PR SR
2026-03-26 Lincoln Indoor Invite 60m 7.5 38th · 1st on team -0.029 ★PR SR
2026-02-07 LAB Indoor Meet #9 200m 24.13 73rd · 1st on team -0.029 SR
2026-02-07 LAB Indoor Meet #9 60m 7.54 76th · 1st on team -0.029 PR SR
2026-01-31 LAB Indoor Meet #8 400m 54.37 51st · 1st on team -0.029 PR SR
2026-01-31 LAB Indoor Meet #8 55m 7.14 80th · 1st on team -0.029
2026-01-10 LAB Indoor Meet #5 400m 56.63 38th · 2nd on team -0.029
2026-01-10 LAB Indoor Meet #5 55m 7.09 38th · 1st on team -0.029 ★PR SR
2026-01-03 LAB Indoor Meet #4 400m 56.22 69th · 1st on team -0.029 SR
2026-01-03 LAB Indoor Meet #4 60m 7.87 94th · 2nd on team -0.029
2025-12-20 LAB Indoor Meet #2 200m 24.24 75th · 1st on team -0.029 SR
2025-12-20 LAB Indoor Meet #2 60m 7.62 120th · 1st on team -0.029 PR SR

2025 TF

Frog Leg Track Club (MI) · Grade 8

Date Meet Event Result Place Rating Difficulty PR/SR Flags
2025-06-19 New Balance Nationals Outdoor 200m 24.09 63rd · 1st on team -0.045
2025-06-19 New Balance Nationals Outdoor 400m 55.36 77th · 1st on team -0.045
2025-06-19 New Balance Nationals Outdoor 100m 11.93 93rd · 1st on team -0.045
2025-05-13 SEC-MS Championship lj 15' 6" -0.020
2025-05-13 SEC-MS Championship 200m 23.66 1st · 1st on team -0.020 ★PR SR
2025-05-09 SEC-MS Bedford@Monroe Dual Meet 2025 lj 15-8.5 -0.022
2025-05-09 SEC-MS Bedford@Monroe Dual Meet 2025 100m 12.02 1st · 1st on team -0.022
2025-05-05 SEC-MS: Lincoln @ Bedford lj 15' 5" -0.026
2025-05-05 SEC-MS: Lincoln @ Bedford 200m 24.1 1st · 1st on team -0.026 PR SR
2025-05-01 SEC-MS: Bedford @ Saline lj 15' 4" -0.029
2025-05-01 SEC-MS: Bedford @ Saline 400m 54.5 1st · 1st on team -0.029 PR SR
2025-04-28 SEC-MS: Bedford at Adrian lj 16' 0" -0.018
2025-04-28 SEC-MS: Bedford at Adrian 100m 11.8 1st · 1st on team -0.018 ★PR SR
2025-04-24 SEC-MS Pinckney @ Bedford lj 16' 0" -0.026
2025-04-24 SEC-MS Pinckney @ Bedford 200m 24.25 1st · 1st on team -0.026 PR SR
2025-01-18 LAB Indoor Meet #6 200m 24.95 43rd · 6th on team -0.029 PR SR
2025-01-18 LAB Indoor Meet #6 60m 7.74 45th · 12th on team -0.029 PR SR

2024 TF

Temperance Bedford (MI) · Grade 7

Date Meet Event Result Place Rating Difficulty PR/SR Flags
2024-05-14 SEC-MS Championship (Pinc) shot 31' 2.25 -0.027
2024-05-14 SEC-MS Championship (Pinc) 400m 56.85 3rd · 1st on team -0.027 PR SR
2024-05-10 SEC-MS: Monroe at Bedford shot 29' 6 -0.026
2024-05-10 SEC-MS: Monroe at Bedford 400m 1:01.45 1st · 1st on team -0.026
2024-04-25 SEC MS: Saline @ Bedford shot 30' 11 -0.026
2024-04-25 SEC MS: Saline @ Bedford 400m 59.77 1st · 1st on team -0.026 PR SR

2023 TF

Temperance Bedford (MI) · Grade 6

Date Meet Event Result Place Rating Difficulty PR/SR Flags
2023-05-15 SEC-MS: Lincoln & Bedford @ Monroe 400m 1:01.31 2nd · 2nd on team -0.022
2023-05-15 SEC-MS: Lincoln & Bedford @ Monroe 100m 13.59 5th · 3rd on team -0.022 PR SR
2023-05-08 SEC-MS Chelsea & Ypsi @Bedford 400m 1:01.14 2nd · 2nd on team -0.026 PR SR
2023-05-08 SEC-MS Chelsea & Ypsi @Bedford 200m 27.54 5th · 2nd on team -0.026 PR SR
2023-05-04 SEC-MS Bedford at Saline 400m 1:05.37 6th · 5th on team -0.029 PR SR
2023-05-04 SEC-MS Bedford at Saline 200m 28.36 6th · 3rd on team -0.029 PR SR